Echo Bay, Nevada
Current Conditions -  °F | °C
As of 7:22 PM on Monday 26 Jan 2015 (Local Time) from KLSV Reporting Station
Light Rain Light Rain  
Wind Chill: 61°   Ceiling: Unl
Heat Index: 61°   Visibility: 10mi
Dew Point: 45°   Wind: 6mph
Humidity: 55%   Direction: 180°S
Pressure: 30.12"   Gusts: NA
Location:  36.5809°N, 114.605°W
Report Text: KLSV 270322Z AUTO 18005KT 10SM -RA FEW090 16/07 A3012 RMK AO2 RAB22
Loading
Personal Weather Stations






























Interactive Weather Map New forecast layout! Learn more

10-Day Weather Forecast

Advertisements
Track Severe Weather on mobile